sensor_id;sensor_type;location;lat;lon;timestamp;P1;durP1;ratioP1;P2;durP2;ratioP2
66327;SDS011;53133;52.862;6.602;2023-05-10T00:00:40;13.35;;;11.95;;
66327;SDS011;53133;52.862;6.602;2023-05-10T00:03:06;14.70;;;11.65;;
66327;SDS011;53133;52.862;6.602;2023-05-10T00:05:32;15.02;;;11.95;;
66327;SDS011;53133;52.862;6.602;2023-05-10T00:07:58;13.82;;;11.38;;
66327;SDS011;53133;52.862;6.602;2023-05-10T00:10:23;12.70;;;11.10;;
66327;SDS011;53133;52.862;6.602;2023-05-10T00:12:49;14.75;;;11.15;;
66327;SDS011;53133;52.862;6.602;2023-05-10T00:15:14;13.45;;;10.90;;
66327;SDS011;53133;52.862;6.602;2023-05-10T00:17:40;13.40;;;10.65;;
66327;SDS011;53133;52.862;6.602;2023-05-10T00:20:05;12.98;;;11.00;;
66327;SDS011;53133;52.862;6.602;2023-05-10T00:22:41;13.43;;;11.60;;
66327;SDS011;53133;52.862;6.602;2023-05-10T00:25:06;17.85;;;11.15;;
66327;SDS011;53133;52.862;6.602;2023-05-10T00:27:33;12.05;;;10.75;;
66327;SDS011;53133;52.862;6.602;2023-05-10T00:29:58;12.95;;;10.27;;
66327;SDS011;53133;52.862;6.602;2023-05-10T00:32:24;12.23;;;9.25;;
66327;SDS011;53133;52.862;6.602;2023-05-10T00:34:49;13.93;;;9.40;;
66327;SDS011;53133;52.862;6.602;2023-05-10T00:37:15;12.05;;;9.43;;
66327;SDS011;53133;52.862;6.602;2023-05-10T00:39:41;11.73;;;9.35;;
66327;SDS011;53133;52.862;6.602;2023-05-10T00:42:06;12.05;;;9.90;;
66327;SDS011;53133;52.862;6.602;2023-05-10T00:44:32;12.13;;;9.70;;
66327;SDS011;53133;52.862;6.602;2023-05-10T00:46:57;13.13;;;9.75;;
66327;SDS011;53133;52.862;6.602;2023-05-10T00:49:24;11.05;;;9.07;;
66327;SDS011;53133;52.862;6.602;2023-05-10T00:51:50;13.93;;;9.32;;
66327;SDS011;53133;52.862;6.602;2023-05-10T00:54:16;11.45;;;9.00;;
66327;SDS011;53133;52.862;6.602;2023-05-10T00:56:42;14.32;;;10.02;;
66327;SDS011;53133;52.862;6.602;2023-05-10T00:59:13;11.93;;;9.45;;
66327;SDS011;53133;52.862;6.602;2023-05-10T01:01:41;13.82;;;9.30;;
66327;SDS011;53133;52.862;6.602;2023-05-10T01:04:07;12.60;;;10.23;;
66327;SDS011;53133;52.862;6.602;2023-05-10T01:06:34;15.90;;;10.00;;
66327;SDS011;53133;52.862;6.602;2023-05-10T01:09:00;12.38;;;9.98;;
66327;SDS011;53133;52.862;6.602;2023-05-10T01:11:26;14.07;;;10.32;;
66327;SDS011;53133;52.862;6.602;2023-05-10T01:13:53;13.48;;;10.00;;
66327;SDS011;53133;52.862;6.602;2023-05-10T01:16:21;11.40;;;9.82;;
66327;SDS011;53133;52.862;6.602;2023-05-10T01:18:48;14.57;;;10.57;;
66327;SDS011;53133;52.862;6.602;2023-05-10T01:21:29;13.32;;;9.75;;
66327;SDS011;53133;52.862;6.602;2023-05-10T01:34:46;11.93;;;9.25;;
66327;SDS011;53133;52.862;6.602;2023-05-10T01:37:20;12.27;;;9.38;;
66327;SDS011;53133;52.862;6.602;2023-05-10T01:39:53;12.63;;;9.47;;
66327;SDS011;53133;52.862;6.602;2023-05-10T01:42:25;12.68;;;9.02;;
66327;SDS011;53133;52.862;6.602;2023-05-10T01:44:58;13.32;;;8.98;;
66327;SDS011;53133;52.862;6.602;2023-05-10T01:47:44;13.77;;;8.85;;
66327;SDS011;53133;52.862;6.602;2023-05-10T01:50:17;14.77;;;9.70;;
66327;SDS011;53133;52.862;6.602;2023-05-10T01:52:50;12.45;;;8.98;;
66327;SDS011;53133;52.862;6.602;2023-05-10T01:55:20;11.18;;;8.98;;
66327;SDS011;53133;52.862;6.602;2023-05-10T01:57:48;14.48;;;9.48;;
66327;SDS011;53133;52.862;6.602;2023-05-10T02:00:22;12.85;;;8.75;;
66327;SDS011;53133;52.862;6.602;2023-05-10T02:02:49;14.32;;;9.55;;
66327;SDS011;53133;52.862;6.602;2023-05-10T02:05:16;12.68;;;8.82;;
66327;SDS011;53133;52.862;6.602;2023-05-10T02:07:45;12.63;;;8.70;;
66327;SDS011;53133;52.862;6.602;2023-05-10T02:10:11;10.50;;;8.60;;
66327;SDS011;53133;52.862;6.602;2023-05-10T02:12:41;13.27;;;9.10;;
66327;SDS011;53133;52.862;6.602;2023-05-10T02:15:08;13.80;;;9.40;;
66327;SDS011;53133;52.862;6.602;2023-05-10T02:17:37;13.73;;;9.40;;
66327;SDS011;53133;52.862;6.602;2023-05-10T02:20:04;12.13;;;9.18;;
66327;SDS011;53133;52.862;6.602;2023-05-10T02:22:31;13.48;;;9.07;;
66327;SDS011;53133;52.862;6.602;2023-05-10T02:24:58;13.30;;;8.60;;
66327;SDS011;53133;52.862;6.602;2023-05-10T02:27:25;12.35;;;9.45;;
66327;SDS011;53133;52.862;6.602;2023-05-10T02:29:53;12.32;;;9.57;;
66327;SDS011;53133;52.862;6.602;2023-05-10T02:32:20;11.90;;;8.68;;
66327;SDS011;53133;52.862;6.602;2023-05-10T02:34:47;13.63;;;8.93;;
66327;SDS011;53133;52.862;6.602;2023-05-10T02:37:17;11.50;;;8.90;;
66327;SDS011;53133;52.862;6.602;2023-05-10T02:39:45;12.68;;;9.18;;
66327;SDS011;53133;52.862;6.602;2023-05-10T02:42:18;13.07;;;8.82;;
66327;SDS011;53133;52.862;6.602;2023-05-10T02:44:47;12.60;;;9.13;;
66327;SDS011;53133;52.862;6.602;2023-05-10T02:47:15;11.20;;;8.30;;
66327;SDS011;53133;52.862;6.602;2023-05-10T02:49:41;11.38;;;9.00;;
66327;SDS011;53133;52.862;6.602;2023-05-10T02:52:06;12.77;;;9.32;;
66327;SDS011;53133;52.862;6.602;2023-05-10T02:54:35;12.10;;;9.07;;
66327;SDS011;53133;52.862;6.602;2023-05-10T02:57:08;13.88;;;8.98;;
66327;SDS011;53133;52.862;6.602;2023-05-10T02:59:39;12.63;;;9.60;;
66327;SDS011;53133;52.862;6.602;2023-05-10T03:02:07;13.77;;;9.60;;
66327;SDS011;53133;52.862;6.602;2023-05-10T03:04:34;11.82;;;9.07;;
66327;SDS011;53133;52.862;6.602;2023-05-10T03:07:00;14.10;;;9.65;;
66327;SDS011;53133;52.862;6.602;2023-05-10T03:09:26;14.48;;;8.82;;
66327;SDS011;53133;52.862;6.602;2023-05-10T03:11:56;12.27;;;8.80;;
66327;SDS011;53133;52.862;6.602;2023-05-10T03:19:58;9.25;;;7.93;;
66327;SDS011;53133;52.862;6.602;2023-05-10T03:22:30;11.35;;;9.00;;
66327;SDS011;53133;52.862;6.602;2023-05-10T03:24:57;10.43;;;8.40;;
66327;SDS011;53133;52.862;6.602;2023-05-10T03:27:25;10.68;;;7.80;;
66327;SDS011;53133;52.862;6.602;2023-05-10T03:29:52;11.15;;;8.43;;
66327;SDS011;53133;52.862;6.602;2023-05-10T03:32:19;9.13;;;7.75;;
66327;SDS011;53133;52.862;6.602;2023-05-10T03:34:45;10.80;;;8.10;;
66327;SDS011;53133;52.862;6.602;2023-05-10T03:37:11;10.50;;;8.50;;
66327;SDS011;53133;52.862;6.602;2023-05-10T03:39:36;9.25;;;7.70;;
66327;SDS011;53133;52.862;6.602;2023-05-10T03:42:02;10.18;;;7.47;;
66327;SDS011;53133;52.862;6.602;2023-05-10T03:44:27;11.80;;;8.45;;
66327;SDS011;53133;52.862;6.602;2023-05-10T03:46:53;9.00;;;7.97;;
66327;SDS011;53133;52.862;6.602;2023-05-10T03:49:18;9.40;;;7.68;;
66327;SDS011;53133;52.862;6.602;2023-05-10T03:51:44;10.25;;;8.05;;
66327;SDS011;53133;52.862;6.602;2023-05-10T03:54:10;9.15;;;7.88;;
66327;SDS011;53133;52.862;6.602;2023-05-10T03:56:35;8.65;;;7.50;;
66327;SDS011;53133;52.862;6.602;2023-05-10T03:59:01;9.63;;;8.07;;
66327;SDS011;53133;52.862;6.602;2023-05-10T04:01:26;10.20;;;8.43;;
66327;SDS011;53133;52.862;6.602;2023-05-10T04:03:52;10.40;;;7.85;;
66327;SDS011;53133;52.862;6.602;2023-05-10T04:06:17;12.15;;;8.48;;
66327;SDS011;53133;52.862;6.602;2023-05-10T04:08:43;10.07;;;8.40;;
66327;SDS011;53133;52.862;6.602;2023-05-10T04:11:10;10.85;;;8.57;;
66327;SDS011;53133;52.862;6.602;2023-05-10T04:13:37;12.65;;;8.32;;
66327;SDS011;53133;52.862;6.602;2023-05-10T04:16:03;9.30;;;7.90;;
66327;SDS011;53133;52.862;6.602;2023-05-10T04:18:29;9.40;;;8.18;;
66327;SDS011;53133;52.862;6.602;2023-05-10T04:20:57;11.65;;;8.85;;
66327;SDS011;53133;52.862;6.602;2023-05-10T04:23:23;10.60;;;8.48;;
66327;SDS011;53133;52.862;6.602;2023-05-10T04:25:49;9.95;;;7.97;;
66327;SDS011;53133;52.862;6.602;2023-05-10T04:28:14;10.02;;;7.80;;
66327;SDS011;53133;52.862;6.602;2023-05-10T04:30:40;8.70;;;7.15;;
66327;SDS011;53133;52.862;6.602;2023-05-10T04:33:06;10.02;;;7.78;;
66327;SDS011;53133;52.862;6.602;2023-05-10T04:35:31;11.27;;;8.02;;
66327;SDS011;53133;52.862;6.602;2023-05-10T04:37:57;11.68;;;7.72;;
66327;SDS011;53133;52.862;6.602;2023-05-10T04:40:23;10.68;;;8.07;;
66327;SDS011;53133;52.862;6.602;2023-05-10T04:42:49;10.48;;;7.85;;
66327;SDS011;53133;52.862;6.602;2023-05-10T04:45:14;12.55;;;8.38;;
66327;SDS011;53133;52.862;6.602;2023-05-10T04:47:40;9.63;;;7.45;;
66327;SDS011;53133;52.862;6.602;2023-05-10T04:50:06;9.80;;;7.68;;
66327;SDS011;53133;52.862;6.602;2023-05-10T04:52:32;13.13;;;8.60;;
66327;SDS011;53133;52.862;6.602;2023-05-10T04:54:57;10.23;;;7.65;;
66327;SDS011;53133;52.862;6.602;2023-05-10T04:57:23;9.52;;;7.90;;
66327;SDS011;53133;52.862;6.602;2023-05-10T04:59:49;9.82;;;7.80;;
66327;SDS011;53133;52.862;6.602;2023-05-10T05:02:14;9.90;;;7.82;;
66327;SDS011;53133;52.862;6.602;2023-05-10T05:04:40;11.38;;;8.25;;
66327;SDS011;53133;52.862;6.602;2023-05-10T05:07:06;10.25;;;7.82;;
66327;SDS011;53133;52.862;6.602;2023-05-10T05:09:31;13.02;;;8.02;;
66327;SDS011;53133;52.862;6.602;2023-05-10T05:11:57;9.27;;;7.97;;
66327;SDS011;53133;52.862;6.602;2023-05-10T05:14:23;11.85;;;7.95;;
66327;SDS011;53133;52.862;6.602;2023-05-10T05:16:50;11.00;;;8.38;;
66327;SDS011;53133;52.862;6.602;2023-05-10T05:19:16;12.40;;;8.18;;
66327;SDS011;53133;52.862;6.602;2023-05-10T05:21:42;8.13;;;6.75;;
66327;SDS011;53133;52.862;6.602;2023-05-10T05:24:08;10.40;;;7.82;;
66327;SDS011;53133;52.862;6.602;2023-05-10T05:26:35;10.55;;;7.70;;
66327;SDS011;53133;52.862;6.602;2023-05-10T05:29:00;10.52;;;7.35;;
66327;SDS011;53133;52.862;6.602;2023-05-10T05:31:26;9.07;;;7.43;;
66327;SDS011;53133;52.862;6.602;2023-05-10T05:33:51;10.05;;;7.40;;
66327;SDS011;53133;52.862;6.602;2023-05-10T05:36:17;10.77;;;7.10;;
66327;SDS011;53133;52.862;6.602;2023-05-10T05:38:43;9.55;;;7.10;;
66327;SDS011;53133;52.862;6.602;2023-05-10T05:41:08;12.27;;;8.07;;
66327;SDS011;53133;52.862;6.602;2023-05-10T05:43:34;9.90;;;7.60;;
66327;SDS011;53133;52.862;6.602;2023-05-10T05:45:59;11.55;;;7.72;;
66327;SDS011;53133;52.862;6.602;2023-05-10T05:48:25;10.70;;;7.20;;
66327;SDS011;53133;52.862;6.602;2023-05-10T05:50:54;9.55;;;7.32;;
66327;SDS011;53133;52.862;6.602;2023-05-10T05:53:20;9.20;;;6.90;;
66327;SDS011;53133;52.862;6.602;2023-05-10T05:55:52;8.38;;;6.65;;
66327;SDS011;53133;52.862;6.602;2023-05-10T05:58:20;9.40;;;6.85;;
66327;SDS011;53133;52.862;6.602;2023-05-10T06:00:46;11.00;;;7.25;;
66327;SDS011;53133;52.862;6.602;2023-05-10T06:03:11;10.85;;;7.13;;
66327;SDS011;53133;52.862;6.602;2023-05-10T06:05:37;9.25;;;7.05;;
66327;SDS011;53133;52.862;6.602;2023-05-10T06:08:03;10.05;;;6.82;;
66327;SDS011;53133;52.862;6.602;2023-05-10T06:10:28;9.45;;;7.15;;
66327;SDS011;53133;52.862;6.602;2023-05-10T06:12:55;10.88;;;7.43;;
66327;SDS011;53133;52.862;6.602;2023-05-10T06:15:21;10.13;;;6.40;;
66327;SDS011;53133;52.862;6.602;2023-05-10T06:17:46;9.05;;;5.85;;
66327;SDS011;53133;52.862;6.602;2023-05-10T06:20:14;8.80;;;6.40;;
66327;SDS011;53133;52.862;6.602;2023-05-10T06:22:40;8.98;;;6.60;;
66327;SDS011;53133;52.862;6.602;2023-05-10T06:25:06;9.75;;;7.05;;
66327;SDS011;53133;52.862;6.602;2023-05-10T06:27:32;11.85;;;6.90;;
66327;SDS011;53133;52.862;6.602;2023-05-10T06:29:58;11.18;;;6.75;;
66327;SDS011;53133;52.862;6.602;2023-05-10T06:32:23;12.30;;;7.43;;
66327;SDS011;53133;52.862;6.602;2023-05-10T06:34:49;10.65;;;7.30;;
66327;SDS011;53133;52.862;6.602;2023-05-10T06:37:14;10.38;;;7.30;;
66327;SDS011;53133;52.862;6.602;2023-05-10T06:39:40;11.27;;;7.85;;
66327;SDS011;53133;52.862;6.602;2023-05-10T06:42:05;9.10;;;6.70;;
66327;SDS011;53133;52.862;6.602;2023-05-10T06:44:31;10.15;;;7.00;;
66327;SDS011;53133;52.862;6.602;2023-05-10T06:46:56;10.00;;;7.47;;
66327;SDS011;53133;52.862;6.602;2023-05-10T06:49:22;10.43;;;7.35;;
66327;SDS011;53133;52.862;6.602;2023-05-10T06:51:47;10.73;;;7.07;;
66327;SDS011;53133;52.862;6.602;2023-05-10T06:54:14;9.13;;;6.40;;
66327;SDS011;53133;52.862;6.602;2023-05-10T06:56:39;11.23;;;6.80;;
66327;SDS011;53133;52.862;6.602;2023-05-10T06:59:05;10.55;;;6.53;;
66327;SDS011;53133;52.862;6.602;2023-05-10T07:01:31;11.02;;;6.47;;
66327;SDS011;53133;52.862;6.602;2023-05-10T07:03:57;8.40;;;6.93;;
66327;SDS011;53133;52.862;6.602;2023-05-10T07:06:22;9.52;;;6.65;;
66327;SDS011;53133;52.862;6.602;2023-05-10T07:08:48;10.02;;;7.22;;
66327;SDS011;53133;52.862;6.602;2023-05-10T07:11:13;12.45;;;7.22;;
66327;SDS011;53133;52.862;6.602;2023-05-10T07:13:39;9.10;;;6.82;;
66327;SDS011;53133;52.862;6.602;2023-05-10T07:16:08;10.88;;;6.75;;
66327;SDS011;53133;52.862;6.602;2023-05-10T07:18:35;9.68;;;7.05;;
66327;SDS011;53133;52.862;6.602;2023-05-10T07:21:01;11.32;;;7.88;;
66327;SDS011;53133;52.862;6.602;2023-05-10T07:23:27;10.23;;;6.60;;
66327;SDS011;53133;52.862;6.602;2023-05-10T07:25:52;9.27;;;7.03;;
66327;SDS011;53133;52.862;6.602;2023-05-10T07:28:18;8.23;;;6.13;;
66327;SDS011;53133;52.862;6.602;2023-05-10T07:30:44;8.57;;;6.35;;
66327;SDS011;53133;52.862;6.602;2023-05-10T07:33:12;7.72;;;6.18;;
66327;SDS011;53133;52.862;6.602;2023-05-10T07:35:38;7.90;;;5.43;;
66327;SDS011;53133;52.862;6.602;2023-05-10T07:38:04;8.55;;;5.25;;
66327;SDS011;53133;52.862;6.602;2023-05-10T07:40:30;7.57;;;5.35;;
66327;SDS011;53133;52.862;6.602;2023-05-10T07:42:56;7.95;;;5.57;;
66327;SDS011;53133;52.862;6.602;2023-05-10T07:45:22;8.73;;;6.50;;
66327;SDS011;53133;52.862;6.602;2023-05-10T07:47:48;9.05;;;6.60;;
66327;SDS011;53133;52.862;6.602;2023-05-10T07:50:14;9.48;;;6.60;;
66327;SDS011;53133;52.862;6.602;2023-05-10T07:52:40;9.00;;;6.55;;
66327;SDS011;53133;52.862;6.602;2023-05-10T07:55:06;9.95;;;6.10;;
66327;SDS011;53133;52.862;6.602;2023-05-10T07:57:33;8.05;;;6.30;;
66327;SDS011;53133;52.862;6.602;2023-05-10T07:59:59;9.40;;;5.70;;
66327;SDS011;53133;52.862;6.602;2023-05-10T08:02:25;9.43;;;5.90;;
66327;SDS011;53133;52.862;6.602;2023-05-10T08:04:50;9.48;;;5.53;;
66327;SDS011;53133;52.862;6.602;2023-05-10T08:07:16;8.48;;;5.80;;
66327;SDS011;53133;52.862;6.602;2023-05-10T08:09:42;8.25;;;4.85;;
66327;SDS011;53133;52.862;6.602;2023-05-10T08:12:08;6.82;;;3.78;;
66327;SDS011;53133;52.862;6.602;2023-05-10T08:14:34;6.63;;;4.10;;
66327;SDS011;53133;52.862;6.602;2023-05-10T08:17:01;5.38;;;3.58;;
66327;SDS011;53133;52.862;6.602;2023-05-10T08:19:28;4.00;;;3.55;;
66327;SDS011;53133;52.862;6.602;2023-05-10T08:21:53;4.03;;;3.58;;
66327;SDS011;53133;52.862;6.602;2023-05-10T08:24:20;5.68;;;3.50;;
66327;SDS011;53133;52.862;6.602;2023-05-10T08:26:46;4.43;;;3.17;;
66327;SDS011;53133;52.862;6.602;2023-05-10T08:29:12;4.43;;;3.47;;
66327;SDS011;53133;52.862;6.602;2023-05-10T08:31:38;3.90;;;3.50;;
66327;SDS011;53133;52.862;6.602;2023-05-10T08:34:04;5.25;;;3.63;;
66327;SDS011;53133;52.862;6.602;2023-05-10T08:36:29;5.05;;;3.40;;
66327;SDS011;53133;52.862;6.602;2023-05-10T08:38:55;4.68;;;3.78;;
66327;SDS011;53133;52.862;6.602;2023-05-10T08:41:21;4.15;;;3.22;;
66327;SDS011;53133;52.862;6.602;2023-05-10T08:43:50;3.50;;;3.20;;
66327;SDS011;53133;52.862;6.602;2023-05-10T08:46:17;4.85;;;3.35;;
66327;SDS011;53133;52.862;6.602;2023-05-10T08:48:47;4.65;;;3.20;;
66327;SDS011;53133;52.862;6.602;2023-05-10T08:51:14;4.50;;;3.20;;
66327;SDS011;53133;52.862;6.602;2023-05-10T08:53:42;5.00;;;3.95;;
66327;SDS011;53133;52.862;6.602;2023-05-10T08:56:09;5.15;;;4.00;;
66327;SDS011;53133;52.862;6.602;2023-05-10T08:58:35;6.13;;;4.35;;
66327;SDS011;53133;52.862;6.602;2023-05-10T09:01:01;6.38;;;4.70;;
66327;SDS011;53133;52.862;6.602;2023-05-10T09:03:28;7.22;;;4.63;;
66327;SDS011;53133;52.862;6.602;2023-05-10T09:05:55;5.05;;;4.13;;
66327;SDS011;53133;52.862;6.602;2023-05-10T09:08:20;6.00;;;4.20;;
66327;SDS011;53133;52.862;6.602;2023-05-10T09:10:50;6.35;;;4.50;;
66327;SDS011;53133;52.862;6.602;2023-05-10T09:13:16;5.10;;;4.55;;
66327;SDS011;53133;52.862;6.602;2023-05-10T09:15:43;4.78;;;4.25;;
66327;SDS011;53133;52.862;6.602;2023-05-10T09:18:10;5.28;;;3.88;;
66327;SDS011;53133;52.862;6.602;2023-05-10T09:20:36;5.90;;;4.90;;
66327;SDS011;53133;52.862;6.602;2023-05-10T09:23:01;8.43;;;4.80;;
66327;SDS011;53133;52.862;6.602;2023-05-10T09:25:27;8.68;;;5.65;;
66327;SDS011;53133;52.862;6.602;2023-05-10T09:27:53;12.32;;;9.05;;
66327;SDS011;53133;52.862;6.602;2023-05-10T09:30:28;15.18;;;9.63;;
66327;SDS011;53133;52.862;6.602;2023-05-10T09:32:55;17.65;;;10.65;;
66327;SDS011;53133;52.862;6.602;2023-05-10T09:35:22;16.40;;;10.35;;
66327;SDS011;53133;52.862;6.602;2023-05-10T09:37:51;18.20;;;11.15;;
66327;SDS011;53133;52.862;6.602;2023-05-10T09:40:25;16.70;;;11.05;;
66327;SDS011;53133;52.862;6.602;2023-05-10T09:45:29;17.70;;;10.80;;
66327;SDS011;53133;52.862;6.602;2023-05-10T09:47:56;16.52;;;11.38;;
66327;SDS011;53133;52.862;6.602;2023-05-10T09:50:22;17.25;;;11.32;;
66327;SDS011;53133;52.862;6.602;2023-05-10T09:52:52;14.45;;;9.90;;
66327;SDS011;53133;52.862;6.602;2023-05-10T09:55:20;14.48;;;8.77;;
66327;SDS011;53133;52.862;6.602;2023-05-10T09:57:47;12.88;;;8.70;;
66327;SDS011;53133;52.862;6.602;2023-05-10T10:00:20;13.85;;;10.63;;
66327;SDS011;53133;52.862;6.602;2023-05-10T10:02:55;14.23;;;11.68;;
66327;SDS011;53133;52.862;6.602;2023-05-10T10:05:29;14.65;;;10.82;;
66327;SDS011;53133;52.862;6.602;2023-05-10T10:07:57;11.77;;;9.85;;
66327;SDS011;53133;52.862;6.602;2023-05-10T10:10:23;13.00;;;10.18;;
66327;SDS011;53133;52.862;6.602;2023-05-10T10:12:50;12.43;;;9.60;;
66327;SDS011;53133;52.862;6.602;2023-05-10T10:15:16;23.42;;;20.80;;
66327;SDS011;53133;52.862;6.602;2023-05-10T10:17:42;15.85;;;11.00;;
66327;SDS011;53133;52.862;6.602;2023-05-10T10:20:08;14.13;;;10.02;;
66327;SDS011;53133;52.862;6.602;2023-05-10T10:22:34;15.15;;;10.07;;
66327;SDS011;53133;52.862;6.602;2023-05-10T10:25:01;14.52;;;9.43;;
66327;SDS011;53133;52.862;6.602;2023-05-10T10:35:43;11.68;;;8.27;;
66327;SDS011;53133;52.862;6.602;2023-05-10T10:38:12;12.50;;;9.30;;
66327;SDS011;53133;52.862;6.602;2023-05-10T10:40:38;12.73;;;8.90;;
66327;SDS011;53133;52.862;6.602;2023-05-10T10:43:21;10.43;;;8.30;;
66327;SDS011;53133;52.862;6.602;2023-05-10T10:51:07;12.07;;;8.13;;
66327;SDS011;53133;52.862;6.602;2023-05-10T10:53:32;9.63;;;7.00;;
66327;SDS011;53133;52.862;6.602;2023-05-10T10:56:08;10.82;;;7.15;;
66327;SDS011;53133;52.862;6.602;2023-05-10T10:58:40;11.88;;;7.50;;
66327;SDS011;53133;52.862;6.602;2023-05-10T11:01:24;10.07;;;7.45;;
66327;SDS011;53133;52.862;6.602;2023-05-10T11:06:33;9.32;;;7.07;;
66327;SDS011;53133;52.862;6.602;2023-05-10T11:09:07;9.10;;;7.18;;
66327;SDS011;53133;52.862;6.602;2023-05-10T11:11:33;9.55;;;6.90;;
66327;SDS011;53133;52.862;6.602;2023-05-10T11:14:06;8.38;;;6.85;;
66327;SDS011;53133;52.862;6.602;2023-05-10T11:16:41;7.32;;;6.00;;
66327;SDS011;53133;52.862;6.602;2023-05-10T11:19:09;10.23;;;6.57;;
66327;SDS011;53133;52.862;6.602;2023-05-10T11:21:46;10.00;;;6.57;;
66327;SDS011;53133;52.862;6.602;2023-05-10T11:24:13;9.05;;;6.63;;
66327;SDS011;53133;52.862;6.602;2023-05-10T11:26:40;8.38;;;6.80;;
66327;SDS011;53133;52.862;6.602;2023-05-10T11:29:06;10.18;;;6.90;;
66327;SDS011;53133;52.862;6.602;2023-05-10T11:31:32;10.90;;;7.38;;
66327;SDS011;53133;52.862;6.602;2023-05-10T11:33:58;10.20;;;7.45;;
66327;SDS011;53133;52.862;6.602;2023-05-10T11:36:32;8.68;;;7.20;;
66327;SDS011;53133;52.862;6.602;2023-05-10T11:38:59;10.73;;;7.50;;
66327;SDS011;53133;52.862;6.602;2023-05-10T11:41:26;13.18;;;10.00;;
66327;SDS011;53133;52.862;6.602;2023-05-10T11:43:53;18.00;;;12.50;;
66327;SDS011;53133;52.862;6.602;2023-05-10T11:46:20;25.88;;;17.27;;
66327;SDS011;53133;52.862;6.602;2023-05-10T11:48:47;11.85;;;8.70;;
66327;SDS011;53133;52.862;6.602;2023-05-10T11:51:19;11.68;;;7.68;;
66327;SDS011;53133;52.862;6.602;2023-05-10T11:53:46;10.75;;;8.27;;
66327;SDS011;53133;52.862;6.602;2023-05-10T11:56:11;12.10;;;9.88;;
66327;SDS011;53133;52.862;6.602;2023-05-10T11:58:37;10.38;;;8.13;;
66327;SDS011;53133;52.862;6.602;2023-05-10T12:01:04;12.48;;;8.77;;
66327;SDS011;53133;52.862;6.602;2023-05-10T12:03:31;11.18;;;8.45;;
66327;SDS011;53133;52.862;6.602;2023-05-10T12:05:58;10.70;;;7.93;;
66327;SDS011;53133;52.862;6.602;2023-05-10T12:08:25;10.77;;;8.40;;
66327;SDS011;53133;52.862;6.602;2023-05-10T12:10:53;10.07;;;8.30;;
66327;SDS011;53133;52.862;6.602;2023-05-10T12:13:28;11.05;;;8.35;;
66327;SDS011;53133;52.862;6.602;2023-05-10T12:15:57;12.77;;;8.35;;
66327;SDS011;53133;52.862;6.602;2023-05-10T12:18:23;13.52;;;9.07;;
66327;SDS011;53133;52.862;6.602;2023-05-10T12:20:54;11.38;;;8.55;;
66327;SDS011;53133;52.862;6.602;2023-05-10T12:23:28;11.68;;;8.63;;
66327;SDS011;53133;52.862;6.602;2023-05-10T12:25:54;10.68;;;8.27;;
66327;SDS011;53133;52.862;6.602;2023-05-10T12:28:29;15.25;;;8.18;;
66327;SDS011;53133;52.862;6.602;2023-05-10T12:30:57;10.75;;;8.45;;
66327;SDS011;53133;52.862;6.602;2023-05-10T12:33:23;13.25;;;8.02;;
66327;SDS011;53133;52.862;6.602;2023-05-10T12:35:50;10.70;;;7.72;;
66327;SDS011;53133;52.862;6.602;2023-05-10T12:38:31;10.27;;;7.65;;
66327;SDS011;53133;52.862;6.602;2023-05-10T12:40:59;12.75;;;8.63;;
66327;SDS011;53133;52.862;6.602;2023-05-10T12:43:25;12.60;;;8.35;;
66327;SDS011;53133;52.862;6.602;2023-05-10T12:45:51;14.43;;;10.07;;
66327;SDS011;53133;52.862;6.602;2023-05-10T12:48:17;11.40;;;8.43;;
66327;SDS011;53133;52.862;6.602;2023-05-10T12:50:43;13.98;;;9.23;;
66327;SDS011;53133;52.862;6.602;2023-05-10T12:53:09;14.40;;;9.55;;
66327;SDS011;53133;52.862;6.602;2023-05-10T12:55:34;12.38;;;8.68;;
66327;SDS011;53133;52.862;6.602;2023-05-10T12:58:00;13.00;;;9.13;;
66327;SDS011;53133;52.862;6.602;2023-05-10T13:00:25;12.70;;;8.65;;
66327;SDS011;53133;52.862;6.602;2023-05-10T13:02:51;13.63;;;8.95;;
66327;SDS011;53133;52.862;6.602;2023-05-10T13:05:17;14.02;;;9.27;;
66327;SDS011;53133;52.862;6.602;2023-05-10T13:07:42;18.85;;;11.35;;
66327;SDS011;53133;52.862;6.602;2023-05-10T13:10:08;17.48;;;11.02;;
66327;SDS011;53133;52.862;6.602;2023-05-10T13:12:34;16.23;;;10.95;;
66327;SDS011;53133;52.862;6.602;2023-05-10T13:15:00;17.05;;;11.55;;
66327;SDS011;53133;52.862;6.602;2023-05-10T13:17:26;18.20;;;11.85;;
66327;SDS011;53133;52.862;6.602;2023-05-10T13:19:51;18.33;;;12.50;;
66327;SDS011;53133;52.862;6.602;2023-05-10T13:22:17;22.58;;;15.93;;
66327;SDS011;53133;52.862;6.602;2023-05-10T13:24:42;21.63;;;15.82;;
66327;SDS011;53133;52.862;6.602;2023-05-10T13:27:08;17.95;;;11.60;;
66327;SDS011;53133;52.862;6.602;2023-05-10T13:29:34;17.77;;;11.13;;
66327;SDS011;53133;52.862;6.602;2023-05-10T13:31:59;14.45;;;9.70;;
66327;SDS011;53133;52.862;6.602;2023-05-10T13:34:25;15.73;;;9.88;;
66327;SDS011;53133;52.862;6.602;2023-05-10T13:36:51;20.13;;;13.55;;
66327;SDS011;53133;52.862;6.602;2023-05-10T13:39:17;14.45;;;9.18;;
66327;SDS011;53133;52.862;6.602;2023-05-10T13:41:43;14.15;;;8.75;;
66327;SDS011;53133;52.862;6.602;2023-05-10T13:44:09;17.20;;;9.80;;
66327;SDS011;53133;52.862;6.602;2023-05-10T13:46:37;15.07;;;9.45;;
66327;SDS011;53133;52.862;6.602;2023-05-10T13:49:03;13.57;;;10.02;;
66327;SDS011;53133;52.862;6.602;2023-05-10T13:51:29;14.68;;;10.05;;
66327;SDS011;53133;52.862;6.602;2023-05-10T13:53:56;13.90;;;9.45;;
66327;SDS011;53133;52.862;6.602;2023-05-10T13:56:22;16.63;;;10.07;;
66327;SDS011;53133;52.862;6.602;2023-05-10T13:58:48;16.15;;;9.80;;
66327;SDS011;53133;52.862;6.602;2023-05-10T14:01:13;15.45;;;9.77;;
66327;SDS011;53133;52.862;6.602;2023-05-10T14:03:39;16.88;;;9.40;;
66327;SDS011;53133;52.862;6.602;2023-05-10T14:06:05;15.15;;;9.15;;
66327;SDS011;53133;52.862;6.602;2023-05-10T14:08:32;16.02;;;9.60;;
66327;SDS011;53133;52.862;6.602;2023-05-10T14:10:58;15.43;;;9.20;;
66327;SDS011;53133;52.862;6.602;2023-05-10T14:13:23;15.82;;;8.32;;
66327;SDS011;53133;52.862;6.602;2023-05-10T14:15:52;13.43;;;8.65;;
66327;SDS011;53133;52.862;6.602;2023-05-10T14:18:18;14.75;;;9.25;;
66327;SDS011;53133;52.862;6.602;2023-05-10T14:20:44;14.95;;;10.05;;
66327;SDS011;53133;52.862;6.602;2023-05-10T14:23:10;14.45;;;9.18;;
66327;SDS011;53133;52.862;6.602;2023-05-10T14:25:36;14.38;;;9.63;;
66327;SDS011;53133;52.862;6.602;2023-05-10T14:28:03;15.88;;;9.35;;
66327;SDS011;53133;52.862;6.602;2023-05-10T14:30:28;16.17;;;9.85;;
66327;SDS011;53133;52.862;6.602;2023-05-10T14:32:54;17.10;;;10.30;;
66327;SDS011;53133;52.862;6.602;2023-05-10T14:35:20;15.90;;;10.13;;
66327;SDS011;53133;52.862;6.602;2023-05-10T14:37:46;17.63;;;11.02;;
66327;SDS011;53133;52.862;6.602;2023-05-10T14:40:11;15.30;;;9.15;;
66327;SDS011;53133;52.862;6.602;2023-05-10T14:42:37;13.65;;;9.60;;
66327;SDS011;53133;52.862;6.602;2023-05-10T14:45:03;14.65;;;9.63;;
66327;SDS011;53133;52.862;6.602;2023-05-10T14:47:29;16.95;;;9.52;;
66327;SDS011;53133;52.862;6.602;2023-05-10T14:49:55;17.25;;;10.15;;
66327;SDS011;53133;52.862;6.602;2023-05-10T14:52:20;14.63;;;9.43;;
66327;SDS011;53133;52.862;6.602;2023-05-10T14:54:46;14.43;;;9.57;;
66327;SDS011;53133;52.862;6.602;2023-05-10T14:57:12;14.75;;;9.40;;
66327;SDS011;53133;52.862;6.602;2023-05-10T14:59:38;14.98;;;9.45;;
66327;SDS011;53133;52.862;6.602;2023-05-10T15:02:03;13.90;;;9.23;;
66327;SDS011;53133;52.862;6.602;2023-05-10T15:04:29;15.13;;;9.68;;
66327;SDS011;53133;52.862;6.602;2023-05-10T15:06:55;14.38;;;9.80;;
66327;SDS011;53133;52.862;6.602;2023-05-10T15:09:24;16.55;;;10.00;;